createdAt,value
2023-02-27T00:00:42.605Z,-1.26
2023-02-27T00:03:10.532Z,-1.15
2023-02-27T00:05:41.323Z,-1.28
2023-02-27T00:08:09.604Z,-1.27
2023-02-27T00:10:37.570Z,-1.20
2023-02-27T00:13:05.460Z,-1.23
2023-02-27T00:15:33.499Z,-1.33
2023-02-27T00:18:02.804Z,-1.47
2023-02-27T00:20:32.244Z,-1.49
2023-02-27T00:23:00.208Z,-1.52
2023-02-27T00:25:28.120Z,-1.47
2023-02-27T00:27:56.864Z,-1.49
2023-02-27T00:30:26.529Z,-1.49
2023-02-27T00:32:54.628Z,-1.41
2023-02-27T00:35:23.930Z,-1.32
2023-02-27T00:37:51.894Z,-1.20
2023-02-27T00:40:19.924Z,-1.37
2023-02-27T00:42:48.719Z,-1.38
2023-02-27T00:45:16.698Z,-1.16
2023-02-27T00:47:44.589Z,-1.22
2023-02-27T00:50:13.295Z,-1.19
2023-02-27T00:52:42.620Z,-1.23
2023-02-27T00:55:11.354Z,-1.41
2023-02-27T00:57:40.458Z,-1.23
2023-02-27T01:00:11.154Z,-1.15
2023-02-27T01:02:39.145Z,-1.29
2023-02-27T01:05:07.872Z,-1.44
2023-02-27T01:07:37.250Z,-1.47
2023-02-27T01:10:07.716Z,-1.12
2023-02-27T01:12:35.713Z,-1.23
2023-02-27T01:15:03.829Z,-1.65
2023-02-27T01:17:31.861Z,-1.45
2023-02-27T01:19:59.794Z,-1.38
2023-02-27T01:22:27.765Z,-1.51
2023-02-27T01:24:55.652Z,-1.32
2023-02-27T01:27:24.966Z,-1.28
2023-02-27T01:29:52.974Z,-1.41
2023-02-27T01:32:20.972Z,-1.43
2023-02-27T01:34:49.228Z,-1.38
2023-02-27T01:37:17.188Z,-1.47
2023-02-27T01:39:45.224Z,-1.49
2023-02-27T01:42:21.185Z,-1.58
2023-02-27T01:45:27.075Z,-1.54
2023-02-27T01:48:01.023Z,-1.68
2023-02-27T01:50:29.099Z,-1.67
2023-02-27T01:52:59.485Z,-1.70
2023-02-27T01:55:29.615Z,-1.76
2023-02-27T01:57:58.337Z,-1.93
2023-02-27T02:00:28.190Z,-2.03
2023-02-27T02:03:02.537Z,-2.21
2023-02-27T02:05:31.409Z,-2.17
2023-02-27T02:07:59.679Z,-2.34
2023-02-27T02:10:27.844Z,-2.32
2023-02-27T02:12:55.980Z,-2.33
2023-02-27T02:15:30.531Z,-2.34
2023-02-27T02:18:05.436Z,-2.31
2023-02-27T02:21:18.160Z,-2.16
2023-02-27T02:24:28.570Z,-2.07
2023-02-27T02:27:04.481Z,-2.35
2023-02-27T02:29:59.603Z,-2.23
2023-02-27T02:33:18.144Z,-2.23
2023-02-27T02:36:17.549Z,-2.22
2023-02-27T02:39:03.115Z,-2.36
2023-02-27T02:41:38.541Z,-2.27
2023-02-27T02:44:09.712Z,-2.38
2023-02-27T02:46:43.367Z,-2.23
2023-02-27T02:49:16.523Z,-2.35
2023-02-27T02:51:50.020Z,-2.31
2023-02-27T02:54:22.361Z,-2.26
2023-02-27T02:56:51.887Z,-2.17
2023-02-27T02:59:24.408Z,-2.08
2023-02-27T03:01:55.079Z,-2.02
2023-02-27T03:04:27.924Z,-1.97
2023-02-27T03:07:00.924Z,-1.98
2023-02-27T03:09:33.584Z,-1.84
2023-02-27T03:12:04.418Z,-2.12
2023-02-27T03:14:36.167Z,-2.45
2023-02-27T03:17:06.853Z,-2.45
2023-02-27T03:19:37.847Z,-2.43
2023-02-27T03:22:07.489Z,-2.37
2023-02-27T03:24:39.999Z,-2.25
2023-02-27T03:27:08.821Z,-1.97
2023-02-27T03:29:40.565Z,-2.16
2023-02-27T03:32:12.352Z,-2.27
2023-02-27T03:34:41.622Z,-2.26
2023-02-27T03:37:21.787Z,-2.19
2023-02-27T03:39:52.725Z,-2.23
2023-02-27T03:42:27.760Z,-2.34
2023-02-27T03:45:01.711Z,-2.39
2023-02-27T03:47:29.992Z,-2.42
2023-02-27T03:49:57.928Z,-2.31
2023-02-27T03:52:27.563Z,-2.08
2023-02-27T03:54:59.969Z,-2.38
2023-02-27T03:57:28.460Z,-2.27
2023-02-27T03:59:56.592Z,-2.28
2023-02-27T04:02:24.548Z,-2.32
2023-02-27T04:04:52.438Z,-2.15
2023-02-27T04:07:26.336Z,-2.16
2023-02-27T04:10:29.095Z,-2.18
2023-02-27T04:13:18.443Z,-2.27
2023-02-27T04:16:00.847Z,-2.47
2023-02-27T04:18:40.779Z,-2.27
2023-02-27T04:21:12.309Z,-2.56
2023-02-27T04:23:42.761Z,-2.24
2023-02-27T04:26:22.849Z,-2.32
2023-02-27T04:28:59.255Z,-2.37
2023-02-27T04:31:32.358Z,-2.43
2023-02-27T04:34:02.624Z,-2.31
2023-02-27T04:36:34.726Z,-2.26
2023-02-27T04:39:06.185Z,-2.30
2023-02-27T04:41:38.787Z,-2.23
2023-02-27T04:44:09.519Z,-2.12
2023-02-27T04:46:38.855Z,-2.27
2023-02-27T04:49:10.546Z,-2.18
2023-02-27T04:51:45.544Z,-2.32
2023-02-27T04:54:15.178Z,-2.31
2023-02-27T04:56:47.519Z,-2.46
2023-02-27T04:59:18.255Z,-2.36
2023-02-27T05:01:49.656Z,-2.39
2023-02-27T05:04:19.852Z,-2.28
2023-02-27T05:06:48.755Z,-2.30
2023-02-27T05:09:21.959Z,-2.33
2023-02-27T05:11:56.210Z,-2.23
2023-02-27T05:14:27.381Z,-2.21
2023-02-27T05:17:00.091Z,-2.15
2023-02-27T05:19:28.068Z,-2.22
2023-02-27T05:22:01.179Z,-2.19
2023-02-27T05:24:36.864Z,-2.23
2023-02-27T05:27:14.589Z,-2.27
2023-02-27T05:29:46.254Z,-2.29
2023-02-27T05:32:21.448Z,-2.35
2023-02-27T05:34:53.359Z,-2.31
2023-02-27T05:37:24.361Z,-2.26
2023-02-27T05:39:53.601Z,-2.22
2023-02-27T05:42:27.045Z,-2.20
2023-02-27T05:44:58.341Z,-2.10
2023-02-27T05:47:31.128Z,-2.13
2023-02-27T05:50:03.378Z,-2.20
2023-02-27T05:52:32.463Z,-2.19
2023-02-27T05:55:04.076Z,-2.22
2023-02-27T05:57:37.455Z,-2.21
2023-02-27T06:00:10.626Z,-2.14
2023-02-27T06:02:38.607Z,-2.33
2023-02-27T06:05:07.468Z,-2.38
2023-02-27T06:07:36.138Z,-2.44
2023-02-27T06:10:05.654Z,-2.43
2023-02-27T06:12:34.988Z,-2.51
2023-02-27T06:15:02.874Z,-2.52
2023-02-27T06:17:30.805Z,-2.51
2023-02-27T06:19:58.717Z,-2.52
2023-02-27T06:22:26.612Z,-2.45
2023-02-27T06:24:54.505Z,-2.42
2023-02-27T06:27:22.443Z,-2.36
2023-02-27T06:29:51.686Z,-2.27
2023-02-27T06:32:19.645Z,-2.31
2023-02-27T06:34:47.592Z,-2.26
2023-02-27T06:37:15.488Z,-2.27
2023-02-27T06:39:43.405Z,-2.29
2023-02-27T06:42:11.309Z,-2.35
2023-02-27T06:44:39.205Z,-2.41
2023-02-27T06:47:08.544Z,-2.23
2023-02-27T06:49:36.444Z,-2.15
2023-02-27T06:52:04.361Z,-2.13
2023-02-27T06:54:32.254Z,-2.16
2023-02-27T06:57:00.208Z,-2.15
2023-02-27T06:59:28.159Z,-2.14
2023-02-27T07:01:56.334Z,-2.09
2023-02-27T07:04:25.700Z,-2.06
2023-02-27T07:07:35.977Z,-2.04
2023-02-27T07:09:41.980Z,-1.96
2023-02-27T07:12:10.134Z,-1.92
2023-02-27T07:14:38.198Z,-1.89
2023-02-27T07:17:06.123Z,-1.83
2023-02-27T07:19:36.029Z,-1.78
2023-02-27T07:22:04.376Z,-1.63
2023-02-27T07:24:32.347Z,-1.32
2023-02-27T07:27:00.258Z,-1.16
2023-02-27T07:29:28.398Z,-1.16
2023-02-27T07:31:56.383Z,-1.34
2023-02-27T07:34:24.303Z,-1.36
2023-02-27T07:36:53.604Z,-1.51
2023-02-27T07:39:21.527Z,-1.47
2023-02-27T07:41:49.428Z,-1.36
2023-02-27T07:44:17.377Z,-1.44
2023-02-27T07:46:47.404Z,-1.40
2023-02-27T07:49:15.504Z,-1.42
2023-02-27T07:51:43.898Z,-1.32
2023-02-27T07:54:13.186Z,-1.32
2023-02-27T07:56:41.063Z,-1.27
2023-02-27T07:59:09.017Z,-1.18
2023-02-27T08:01:37.034Z,-1.12
2023-02-27T08:04:04.960Z,-1.04
2023-02-27T08:06:32.857Z,-0.94
2023-02-27T08:09:00.762Z,-0.85
2023-02-27T08:11:30.180Z,-0.88
2023-02-27T08:14:01.077Z,-0.82
2023-02-27T08:16:30.780Z,-0.64
2023-02-27T08:18:59.047Z,-0.68
2023-02-27T08:21:27.574Z,-0.59
2023-02-27T08:23:55.728Z,-0.52
2023-02-27T08:26:23.893Z,-0.47
2023-02-27T08:28:56.041Z,-0.39
2023-02-27T08:31:24.682Z,-0.33
2023-02-27T08:34:01.002Z,-0.30
2023-02-27T08:36:37.972Z,-0.22
2023-02-27T08:39:06.017Z,-0.16
2023-02-27T08:41:34.300Z,-0.09
2023-02-27T08:44:03.806Z,0.11
2023-02-27T08:46:31.911Z,0.33
2023-02-27T08:48:59.873Z,0.35
2023-02-27T08:51:28.137Z,0.17
2023-02-27T08:53:59.168Z,0.21
2023-02-27T08:56:27.560Z,0.43
2023-02-27T08:58:56.138Z,0.37
2023-02-27T09:01:27.477Z,0.39
2023-02-27T09:03:55.646Z,0.78
2023-02-27T09:06:25.906Z,0.63
2023-02-27T09:08:54.196Z,0.88
2023-02-27T09:11:22.132Z,1.04
2023-02-27T09:13:51.486Z,0.98
2023-02-27T09:16:19.732Z,1.53
2023-02-27T09:18:49.584Z,1.37
2023-02-27T09:21:17.815Z,1.11
2023-02-27T09:23:45.754Z,1.07
2023-02-27T09:26:13.989Z,1.50
2023-02-27T09:28:41.910Z,1.40
2023-02-27T09:31:10.228Z,1.58
2023-02-27T09:33:39.406Z,2.03
2023-02-27T09:36:09.724Z,1.85
2023-02-27T09:38:40.920Z,1.98
2023-02-27T09:41:18.486Z,2.23
2023-02-27T09:43:50.491Z,1.83
2023-02-27T09:46:20.193Z,1.98
2023-02-27T09:48:50.960Z,2.01
2023-02-27T09:51:21.011Z,2.18
2023-02-27T09:53:52.099Z,2.19
2023-02-27T09:56:23.837Z,2.23
2023-02-27T09:58:56.587Z,2.58
2023-02-27T10:01:27.132Z,2.63
2023-02-27T10:04:16.244Z,2.26
2023-02-27T10:06:49.572Z,2.97
2023-02-27T10:09:26.816Z,3.50
2023-02-27T10:12:02.936Z,2.84
2023-02-27T10:14:38.991Z,3.47
2023-02-27T10:17:11.385Z,3.14
2023-02-27T10:19:39.891Z,3.65
2023-02-27T10:22:15.617Z,2.85
2023-02-27T10:24:47.707Z,3.55
2023-02-27T10:27:19.225Z,3.66
2023-02-27T10:29:47.413Z,3.62
2023-02-27T10:32:19.704Z,4.27
2023-02-27T10:34:52.230Z,3.55
2023-02-27T10:37:24.037Z,3.76
2023-02-27T10:39:55.472Z,3.66
2023-02-27T10:42:25.701Z,4.25
2023-02-27T10:44:54.427Z,3.93
2023-02-27T10:47:23.893Z,3.80
2023-02-27T10:49:52.399Z,4.00
2023-02-27T10:52:22.074Z,4.07
2023-02-27T10:54:50.024Z,3.98
2023-02-27T10:57:27.400Z,4.21
2023-02-27T10:59:57.832Z,3.90
2023-02-27T11:02:28.894Z,3.95
2023-02-27T11:04:58.432Z,3.99
2023-02-27T11:07:33.642Z,4.08
2023-02-27T11:10:04.697Z,4.11
2023-02-27T11:12:35.168Z,4.20
2023-02-27T11:15:23.154Z,4.35
2023-02-27T11:17:51.570Z,4.59
2023-02-27T11:20:36.955Z,4.43
2023-02-27T11:23:12.885Z,4.64
2023-02-27T11:25:40.829Z,4.60
2023-02-27T11:28:22.315Z,4.74
2023-02-27T11:30:58.502Z,4.66
2023-02-27T11:33:27.666Z,5.00
2023-02-27T11:35:58.471Z,5.02
2023-02-27T11:38:29.873Z,4.86
2023-02-27T11:40:59.152Z,5.02
2023-02-27T11:43:28.715Z,5.09
2023-02-27T11:46:13.219Z,5.23
2023-02-27T11:48:50.683Z,5.26
2023-02-27T11:51:26.508Z,5.28
2023-02-27T11:54:11.227Z,5.27
2023-02-27T11:56:43.084Z,5.40
2023-02-27T11:59:24.037Z,5.43
2023-02-27T12:01:56.381Z,5.35
2023-02-27T12:04:28.834Z,5.48
2023-02-27T12:07:00.693Z,5.61
2023-02-27T12:09:36.036Z,5.63
2023-02-27T12:12:09.098Z,5.79
2023-02-27T12:14:44.270Z,5.90
2023-02-27T12:17:17.640Z,5.94
2023-02-27T12:19:57.713Z,6.02
2023-02-27T12:22:29.209Z,5.89
2023-02-27T12:25:03.552Z,5.94
2023-02-27T12:27:39.371Z,6.06
2023-02-27T12:30:11.688Z,6.06
2023-02-27T12:32:44.319Z,6.13
2023-02-27T12:35:16.627Z,6.12
2023-02-27T12:37:44.872Z,6.19
2023-02-27T12:40:18.253Z,6.22
2023-02-27T12:42:56.598Z,6.17
2023-02-27T12:45:56.287Z,6.39
2023-02-27T12:48:46.116Z,6.62
2023-02-27T12:51:45.944Z,6.59
2023-02-27T12:54:22.634Z,6.55
2023-02-27T12:57:01.780Z,6.75
2023-02-27T12:59:49.424Z,6.87
2023-02-27T13:02:31.679Z,7.19
2023-02-27T13:05:07.269Z,7.20
2023-02-27T13:07:38.639Z,7.31
2023-02-27T13:10:11.809Z,7.24
2023-02-27T13:12:45.441Z,6.87
2023-02-27T13:15:17.423Z,7.23
2023-02-27T13:17:48.624Z,7.11
2023-02-27T13:20:27.924Z,7.48
2023-02-27T13:23:01.935Z,7.87
2023-02-27T13:25:30.989Z,7.70
2023-02-27T13:28:02.362Z,8.07
2023-02-27T13:30:34.255Z,8.29
2023-02-27T13:33:09.233Z,8.15
2023-02-27T13:35:45.967Z,8.42
2023-02-27T13:38:35.631Z,8.46
2023-02-27T13:41:38.529Z,8.42
2023-02-27T13:44:49.821Z,8.77
2023-02-27T13:47:44.784Z,8.85
2023-02-27T13:50:50.621Z,8.79
2023-02-27T13:53:24.543Z,8.86
2023-02-27T13:56:00.248Z,9.07
2023-02-27T13:58:28.334Z,9.03
2023-02-27T14:01:01.736Z,9.11
2023-02-27T14:03:32.230Z,8.95
2023-02-27T14:06:04.199Z,8.88
2023-02-27T14:08:38.087Z,9.19
2023-02-27T14:11:16.707Z,9.59
2023-02-27T14:14:37.424Z,9.62
2023-02-27T14:17:05.495Z,9.52
2023-02-27T14:19:56.993Z,10.40
2023-02-27T14:22:38.837Z,10.09
2023-02-27T14:25:18.049Z,10.32
2023-02-27T14:27:56.886Z,10.54
2023-02-27T14:30:31.335Z,10.44
2023-02-27T14:33:02.392Z,10.53
2023-02-27T14:35:31.737Z,10.49
2023-02-27T14:38:01.512Z,10.54
2023-02-27T14:40:34.305Z,10.54
2023-02-27T14:43:08.960Z,10.20
2023-02-27T14:45:37.004Z,10.45
2023-02-27T14:48:09.637Z,10.55
2023-02-27T14:50:41.975Z,10.66
2023-02-27T14:53:23.405Z,9.61
2023-02-27T14:55:55.206Z,9.99
2023-02-27T14:58:24.155Z,9.73
2023-02-27T15:01:04.468Z,9.22
2023-02-27T15:03:40.134Z,9.02
2023-02-27T15:06:18.380Z,8.85
2023-02-27T15:08:48.887Z,8.82
2023-02-27T15:11:18.640Z,8.69
2023-02-27T15:13:48.097Z,8.54
2023-02-27T15:16:31.044Z,8.21
2023-02-27T15:19:01.096Z,8.23
2023-02-27T15:21:32.636Z,8.27
2023-02-27T15:24:01.759Z,8.12
2023-02-27T15:26:32.167Z,8.01
2023-02-27T15:29:00.749Z,7.82
2023-02-27T15:31:32.094Z,7.54
2023-02-27T15:34:01.806Z,7.76
2023-02-27T15:36:33.288Z,7.76
2023-02-27T15:39:07.858Z,7.44
2023-02-27T15:41:36.020Z,7.53
2023-02-27T15:44:04.877Z,7.40
2023-02-27T15:46:33.333Z,7.56
2023-02-27T15:49:01.367Z,7.43
2023-02-27T15:51:31.312Z,7.33
2023-02-27T15:54:01.300Z,7.31
2023-02-27T15:56:32.713Z,7.25
2023-02-27T15:59:01.457Z,7.14
2023-02-27T16:01:30.888Z,7.00
2023-02-27T16:04:01.099Z,7.01
2023-02-27T16:06:32.650Z,6.93
2023-02-27T16:09:02.644Z,6.92
2023-02-27T16:11:32.328Z,6.71
2023-02-27T16:14:00.290Z,6.85
2023-02-27T16:16:32.697Z,6.59
2023-02-27T16:19:03.337Z,6.64
2023-02-27T16:21:33.438Z,6.70
2023-02-27T16:24:20.825Z,6.68
2023-02-27T16:26:52.256Z,6.66
2023-02-27T16:29:21.897Z,6.60
2023-02-27T16:31:52.483Z,6.50
2023-02-27T16:34:30.132Z,6.42
2023-02-27T16:37:06.595Z,6.45
2023-02-27T16:39:35.091Z,6.40
2023-02-27T16:42:03.289Z,6.31
2023-02-27T16:44:31.237Z,6.24
2023-02-27T16:46:59.702Z,6.15
2023-02-27T16:49:32.041Z,6.01
2023-02-27T16:52:03.319Z,5.92
2023-02-27T16:54:32.611Z,5.72
2023-02-27T16:57:00.513Z,5.72
2023-02-27T16:59:34.499Z,5.44
2023-02-27T17:02:03.782Z,5.28
2023-02-27T17:04:31.959Z,5.46
2023-02-27T17:07:01.840Z,5.63
2023-02-27T17:09:32.621Z,5.17
2023-02-27T17:12:01.909Z,5.33
2023-02-27T17:14:29.799Z,5.09
2023-02-27T17:16:59.411Z,5.15
2023-02-27T17:19:27.389Z,5.14
2023-02-27T17:21:55.290Z,4.62
2023-02-27T17:24:23.335Z,4.48
2023-02-27T17:26:52.541Z,4.18
2023-02-27T17:29:22.055Z,4.78
2023-02-27T17:31:50.054Z,4.34
2023-02-27T17:34:18.036Z,4.74
2023-02-27T17:36:45.904Z,4.62
2023-02-27T17:39:14.997Z,4.53
2023-02-27T17:41:43.907Z,4.10
2023-02-27T17:44:12.359Z,4.09
2023-02-27T17:46:45.090Z,4.24
2023-02-27T17:49:13.035Z,4.29
2023-02-27T17:51:41.310Z,4.10
2023-02-27T17:54:09.253Z,4.20
2023-02-27T17:56:37.313Z,4.43
2023-02-27T17:59:05.305Z,4.30
2023-02-27T18:01:33.449Z,3.98
2023-02-27T18:04:02.837Z,3.73
2023-02-27T18:06:31.096Z,3.90
2023-02-27T18:08:59.765Z,4.15
2023-02-27T18:11:30.522Z,4.22
2023-02-27T18:13:58.756Z,4.13
2023-02-27T18:16:27.037Z,3.98
2023-02-27T18:18:55.131Z,4.03
2023-02-27T18:21:24.714Z,3.91
2023-02-27T18:23:52.972Z,3.86
2023-02-27T18:26:30.915Z,3.92
2023-02-27T18:29:00.377Z,3.81
2023-02-27T18:31:31.197Z,3.81
2023-02-27T18:33:59.555Z,3.95
2023-02-27T18:36:29.656Z,3.79
2023-02-27T18:38:57.943Z,3.59
2023-02-27T18:41:26.078Z,3.44
2023-02-27T18:43:54.033Z,3.71
2023-02-27T18:46:21.997Z,3.56
2023-02-27T18:48:50.021Z,3.89
2023-02-27T18:51:18.588Z,3.98
2023-02-27T18:53:51.511Z,3.97
2023-02-27T18:56:22.753Z,3.71
2023-02-27T18:58:51.474Z,3.56
2023-02-27T19:01:21.277Z,3.71
2023-02-27T19:03:50.071Z,3.62
2023-02-27T19:06:18.016Z,3.56
2023-02-27T19:08:47.333Z,3.70
2023-02-27T19:11:23.101Z,3.83
2023-02-27T19:13:51.187Z,3.81
2023-02-27T19:16:21.847Z,3.81
2023-02-27T19:18:49.807Z,3.62
2023-02-27T19:21:17.718Z,3.59
2023-02-27T19:23:47.009Z,3.70
2023-02-27T19:26:15.311Z,3.79
2023-02-27T19:28:43.227Z,3.66
2023-02-27T19:31:12.801Z,3.70
2023-02-27T19:33:41.334Z,3.48
2023-02-27T19:36:11.833Z,3.44
2023-02-27T19:38:40.145Z,3.44
2023-02-27T19:41:13.254Z,3.37
2023-02-27T19:43:42.047Z,3.38
2023-02-27T19:46:11.589Z,3.43
2023-02-27T19:48:39.983Z,3.39
2023-02-27T19:51:10.888Z,3.38
2023-02-27T19:53:39.919Z,3.54
2023-02-27T19:56:11.695Z,3.53
2023-02-27T19:58:39.951Z,3.58
2023-02-27T20:01:08.267Z,3.60
2023-02-27T20:03:36.709Z,3.49
2023-02-27T20:06:06.374Z,3.49
2023-02-27T20:08:34.604Z,3.51
2023-02-27T20:11:04.490Z,3.58
2023-02-27T20:13:33.775Z,3.65
2023-02-27T20:16:03.726Z,3.61
2023-02-27T20:18:32.299Z,3.54
2023-02-27T20:21:01.687Z,3.48
2023-02-27T20:23:29.664Z,3.37
2023-02-27T20:25:57.579Z,3.33
2023-02-27T20:28:25.585Z,3.28
2023-02-27T20:30:55.057Z,3.26
2023-02-27T20:33:22.966Z,3.34
2023-02-27T20:35:50.907Z,3.39
2023-02-27T20:38:21.424Z,3.51
2023-02-27T20:40:49.305Z,3.59
2023-02-27T20:43:17.182Z,3.62
2023-02-27T20:45:45.134Z,3.63
2023-02-27T20:48:14.487Z,3.57
2023-02-27T20:50:42.706Z,3.56
2023-02-27T20:53:10.618Z,3.40
2023-02-27T20:55:38.540Z,3.38
2023-02-27T20:58:06.657Z,3.37
2023-02-27T21:00:34.632Z,3.50
2023-02-27T21:03:03.604Z,3.52
2023-02-27T21:05:33.677Z,3.56
2023-02-27T21:08:01.600Z,3.61
2023-02-27T21:10:29.589Z,3.58
2023-02-27T21:12:57.476Z,3.48
2023-02-27T21:15:25.470Z,3.40
2023-02-27T21:17:53.469Z,3.36
2023-02-27T21:20:21.580Z,3.22
2023-02-27T21:22:50.842Z,3.24
2023-02-27T21:25:18.914Z,3.24
2023-02-27T21:27:46.832Z,3.16
2023-02-27T21:30:15.130Z,3.06
2023-02-27T21:32:43.158Z,2.92
2023-02-27T21:35:14.839Z,2.86
2023-02-27T21:37:46.790Z,2.88
2023-02-27T21:40:26.252Z,3.05
2023-02-27T21:42:54.417Z,3.08
2023-02-27T21:45:22.381Z,3.11
2023-02-27T21:47:50.300Z,3.13
2023-02-27T21:50:21.838Z,3.09
2023-02-27T21:52:50.174Z,3.15
2023-02-27T21:55:19.756Z,3.12
2023-02-27T21:57:47.661Z,3.06
2023-02-27T22:00:16.166Z,3.09
2023-02-27T22:02:44.244Z,3.11
2023-02-27T22:05:12.153Z,3.18
2023-02-27T22:07:40.237Z,3.30
2023-02-27T22:10:08.666Z,3.32
2023-02-27T22:12:37.936Z,3.33
2023-02-27T22:15:06.771Z,3.35
2023-02-27T22:17:34.700Z,3.21
2023-02-27T22:20:02.873Z,3.17
2023-02-27T22:22:30.868Z,3.25
2023-02-27T22:24:58.789Z,3.30
2023-02-27T22:27:27.221Z,3.38
2023-02-27T22:29:56.646Z,3.42
2023-02-27T22:32:24.763Z,3.39
2023-02-27T22:34:52.668Z,3.39
2023-02-27T22:37:20.595Z,3.25
2023-02-27T22:39:48.469Z,3.18
2023-02-27T22:42:16.381Z,3.13
2023-02-27T22:44:44.659Z,3.17
2023-02-27T22:47:13.974Z,3.25
2023-02-27T22:49:41.864Z,3.28
2023-02-27T22:52:09.984Z,3.33
2023-02-27T22:54:37.883Z,3.29
2023-02-27T22:57:05.942Z,3.36
2023-02-27T22:59:33.831Z,3.35
2023-02-27T23:02:01.989Z,3.36
2023-02-27T23:04:31.272Z,3.36
2023-02-27T23:06:59.187Z,3.27
2023-02-27T23:09:27.397Z,3.29
2023-02-27T23:11:55.650Z,3.31
2023-02-27T23:14:23.956Z,3.32
2023-02-27T23:16:51.973Z,3.31
2023-02-27T23:19:21.480Z,3.22
2023-02-27T23:21:50.963Z,3.30
2023-02-27T23:24:20.380Z,3.28
2023-02-27T23:26:50.511Z,3.26
2023-02-27T23:29:18.547Z,3.29
2023-02-27T23:31:46.681Z,3.29
2023-02-27T23:34:14.767Z,3.27
2023-02-27T23:36:42.676Z,3.13
2023-02-27T23:39:11.976Z,3.15
2023-02-27T23:41:39.885Z,3.13
2023-02-27T23:44:24.936Z,3.06
2023-02-27T23:46:52.853Z,3.05
2023-02-27T23:49:20.904Z,3.10
2023-02-27T23:51:48.827Z,3.09
2023-02-27T23:54:18.164Z,3.00
2023-02-27T23:56:47.984Z,2.96
2023-02-27T23:59:15.920Z,2.95
